createdAt,value
2022-10-30T00:01:53.760Z,100655.00
2022-10-30T00:04:21.575Z,100656.00
2022-10-30T00:06:49.646Z,100657.00
2022-10-30T00:09:17.548Z,100658.00
2022-10-30T00:17:16.258Z,100657.00
2022-10-30T00:19:44.203Z,100662.00
2022-10-30T00:22:12.204Z,100664.00
2022-10-30T00:24:40.086Z,100682.00
2022-10-30T00:27:08.263Z,100678.00
2022-10-30T00:29:36.299Z,100673.00
2022-10-30T00:32:04.378Z,100645.00
2022-10-30T00:34:32.156Z,100661.00
2022-10-30T00:36:59.927Z,100691.00
2022-10-30T00:39:27.794Z,100689.00
2022-10-30T00:41:55.719Z,100665.00
2022-10-30T00:47:41.919Z,100657.00
2022-10-30T00:50:10.822Z,100661.00
2022-10-30T00:52:43.430Z,100660.00
2022-10-30T00:55:14.662Z,100670.00
2022-10-30T00:57:43.219Z,100652.00
2022-10-30T01:00:11.967Z,100652.00
2022-10-30T01:02:42.268Z,100652.00
2022-10-30T01:05:11.875Z,100648.00
2022-10-30T01:10:26.643Z,100639.00
2022-10-30T01:12:55.320Z,100633.00
2022-10-30T01:15:33.977Z,100637.00
2022-10-30T01:18:14.459Z,100625.00
2022-10-30T01:20:48.547Z,100627.00
2022-10-30T01:23:42.901Z,100631.00
2022-10-30T01:26:49.956Z,100631.00
2022-10-30T01:29:36.775Z,100635.00
2022-10-30T01:35:26.885Z,100629.00
2022-10-30T01:40:53.466Z,100625.00
2022-10-30T01:46:20.995Z,100641.00
2022-10-30T01:48:58.224Z,100637.00
2022-10-30T01:51:59.036Z,100636.00
2022-10-30T01:57:56.188Z,100631.00
2022-10-30T02:00:24.285Z,100638.00
2022-10-30T02:02:52.663Z,100622.00
2022-10-30T02:08:14.241Z,100633.00
2022-10-30T02:10:46.112Z,100634.00
2022-10-30T02:13:14.620Z,100638.00
2022-10-30T02:18:30.266Z,100629.00
2022-10-30T02:20:58.386Z,100635.00
2022-10-30T02:26:11.645Z,100631.00
2022-10-30T02:31:24.697Z,100627.00
2022-10-30T02:33:52.453Z,100632.00
2022-10-30T02:36:20.748Z,100626.00
2022-10-30T02:38:48.975Z,100638.00
2022-10-30T02:41:16.965Z,100628.00
2022-10-30T02:43:45.012Z,100623.00
2022-10-30T02:46:12.845Z,100629.00
2022-10-30T02:51:26.179Z,100618.00
2022-10-30T02:53:54.021Z,100622.00
2022-10-30T02:56:21.963Z,100627.00
2022-10-30T02:58:49.672Z,100622.00
2022-10-30T03:01:19.422Z,100626.00
2022-10-30T03:03:48.343Z,100625.00
2022-10-30T03:06:17.719Z,100630.00
2022-10-30T03:08:45.657Z,100627.00
2022-10-30T03:11:15.977Z,100627.00
2022-10-30T03:13:44.995Z,100637.00
2022-10-30T03:19:07.064Z,100630.00
2022-10-30T03:21:34.932Z,100628.00
2022-10-30T03:24:02.904Z,100633.00
2022-10-30T03:26:31.037Z,100637.00
2022-10-30T03:31:51.639Z,100632.00
2022-10-30T03:37:10.399Z,100617.00
2022-10-30T03:39:38.971Z,100627.00
2022-10-30T03:42:06.831Z,100635.00
2022-10-30T03:44:34.540Z,100627.00
2022-10-30T03:47:03.740Z,100619.00
2022-10-30T03:49:36.207Z,100610.00
2022-10-30T03:52:10.067Z,100614.00
2022-10-30T03:54:38.137Z,100612.00
2022-10-30T03:57:06.304Z,100611.00
2022-10-30T03:59:45.582Z,100614.00
2022-10-30T04:08:13.993Z,100623.00
2022-10-30T04:10:46.542Z,100619.00
2022-10-30T04:13:16.340Z,100628.00
2022-10-30T04:15:57.204Z,100621.00
2022-10-30T04:23:59.068Z,100618.00
2022-10-30T04:26:30.507Z,100622.00
2022-10-30T04:28:58.463Z,100629.00
2022-10-30T04:31:27.103Z,100625.00
2022-10-30T04:33:55.145Z,100631.00
2022-10-30T04:36:30.141Z,100620.00
2022-10-30T04:38:58.044Z,100623.00
2022-10-30T04:41:28.270Z,100629.00
2022-10-30T04:46:48.825Z,100618.00
2022-10-30T04:49:16.586Z,100631.00
2022-10-30T04:51:46.641Z,100630.00
2022-10-30T04:54:14.594Z,100631.00
2022-10-30T04:56:42.579Z,100624.00
2022-10-30T04:59:10.557Z,100623.00
2022-10-30T05:01:38.746Z,100625.00
2022-10-30T05:04:08.034Z,100627.00
2022-10-30T05:06:36.273Z,100620.00
2022-10-30T05:09:04.512Z,100627.00
2022-10-30T05:11:40.409Z,100620.00
2022-10-30T05:16:55.022Z,100628.00
2022-10-30T05:22:08.117Z,100631.00
2022-10-30T05:27:23.137Z,100624.00
2022-10-30T05:29:51.044Z,100638.00
2022-10-30T05:32:18.841Z,100638.00
2022-10-30T05:34:49.365Z,100632.00
2022-10-30T05:37:21.093Z,100636.00
2022-10-30T05:39:49.932Z,100632.00
2022-10-30T05:42:27.083Z,100632.00
2022-10-30T05:45:01.990Z,100624.00
2022-10-30T05:47:34.220Z,100630.00
2022-10-30T05:50:03.417Z,100627.00
2022-10-30T05:52:31.341Z,100630.00
2022-10-30T05:58:04.004Z,100639.00
2022-10-30T06:03:31.375Z,100646.00
2022-10-30T06:05:59.323Z,100641.00
2022-10-30T06:08:27.339Z,100648.00
2022-10-30T06:10:58.141Z,100649.00
2022-10-30T06:16:34.829Z,100655.00
2022-10-30T06:19:17.655Z,100652.00
2022-10-30T06:21:47.975Z,100655.00
2022-10-30T06:24:25.137Z,100649.00
2022-10-30T06:27:11.717Z,100659.00
2022-10-30T06:29:39.546Z,100647.00
2022-10-30T06:32:08.165Z,100655.00
2022-10-30T06:34:36.636Z,100639.00
2022-10-30T06:39:50.782Z,100665.00
2022-10-30T06:42:46.214Z,100651.00
2022-10-30T06:45:39.126Z,100665.00
2022-10-30T06:50:56.459Z,100677.00
2022-10-30T06:53:25.752Z,100675.00
2022-10-30T06:56:05.082Z,100681.00
2022-10-30T07:02:11.285Z,100691.00
2022-10-30T07:05:05.967Z,100695.00
2022-10-30T07:07:33.767Z,100696.00
2022-10-30T07:10:02.077Z,100699.00
2022-10-30T07:12:54.508Z,100703.00
2022-10-30T07:16:00.983Z,100710.00
2022-10-30T07:18:36.294Z,100704.00
2022-10-30T07:23:49.806Z,100713.00
2022-10-30T07:29:50.306Z,100714.00
2022-10-30T07:38:31.867Z,100728.00
2022-10-30T07:41:11.086Z,100735.00
2022-10-30T07:43:50.677Z,100731.00
2022-10-30T07:46:37.103Z,100742.00
2022-10-30T07:49:28.132Z,100749.00
2022-10-30T07:54:49.977Z,100759.00
2022-10-30T07:57:44.213Z,100760.00
2022-10-30T08:03:22.179Z,100765.00
2022-10-30T08:05:56.579Z,100766.00
2022-10-30T08:08:30.391Z,100758.00
2022-10-30T08:14:05.238Z,100766.00
2022-10-30T08:16:33.343Z,100760.00
2022-10-30T08:21:46.633Z,100759.00
2022-10-30T08:24:19.013Z,100770.00
2022-10-30T08:26:51.468Z,100760.00
2022-10-30T08:29:19.459Z,100765.00
2022-10-30T08:31:50.631Z,100763.00
2022-10-30T08:34:41.248Z,100761.00
2022-10-30T08:37:09.863Z,100763.00
2022-10-30T08:39:38.089Z,100757.00
2022-10-30T08:42:31.989Z,100752.00
2022-10-30T08:45:02.267Z,100761.00
2022-10-30T08:48:03.645Z,100756.00
2022-10-30T08:50:36.297Z,100754.00
2022-10-30T08:55:55.494Z,100754.00
2022-10-30T09:04:19.186Z,100745.00
2022-10-30T09:06:49.941Z,100750.00
2022-10-30T09:09:38.545Z,100748.00
2022-10-30T09:12:08.472Z,100738.00
2022-10-30T09:14:42.133Z,100743.00
2022-10-30T09:17:11.730Z,100745.00
2022-10-30T09:19:42.616Z,100751.00
2022-10-30T09:24:57.097Z,100758.00
2022-10-30T09:27:54.171Z,100762.00
2022-10-30T09:30:26.698Z,100752.00
2022-10-30T09:33:02.863Z,100753.00
2022-10-30T09:36:02.829Z,100753.00
2022-10-30T09:45:29.816Z,100766.00
2022-10-30T09:48:10.779Z,100767.00
2022-10-30T09:51:37.645Z,100769.00
2022-10-30T09:54:20.872Z,100768.00
2022-10-30T09:57:05.706Z,100777.00
2022-10-30T10:00:08.876Z,100778.00
2022-10-30T10:03:18.958Z,100783.00
2022-10-30T10:09:19.430Z,100779.00
2022-10-30T10:12:05.966Z,100781.00
2022-10-30T10:14:36.657Z,100786.00
2022-10-30T10:17:06.106Z,100788.00
2022-10-30T10:19:41.526Z,100789.00
2022-10-30T10:22:27.658Z,100788.00
2022-10-30T10:24:56.132Z,100787.00
2022-10-30T10:27:23.828Z,100787.00
2022-10-30T10:30:05.454Z,100791.00
2022-10-30T10:32:55.047Z,100788.00
2022-10-30T10:35:41.094Z,100796.00
2022-10-30T10:41:36.239Z,100794.00
2022-10-30T10:44:48.072Z,100797.00
2022-10-30T10:47:53.681Z,100797.00
2022-10-30T10:50:42.397Z,100797.00
2022-10-30T11:01:46.727Z,100770.00
2022-10-30T11:07:23.039Z,100769.00
2022-10-30T11:09:59.650Z,100769.00
2022-10-30T11:12:36.336Z,100772.00
2022-10-30T11:15:27.097Z,100769.00
2022-10-30T11:21:01.027Z,100774.00
2022-10-30T11:23:42.333Z,100774.00
2022-10-30T11:26:19.032Z,100768.00
2022-10-30T11:32:02.102Z,100767.00
2022-10-30T11:34:38.017Z,100773.00
2022-10-30T11:37:06.365Z,100768.00
2022-10-30T11:39:35.561Z,100766.00
2022-10-30T11:42:14.060Z,100763.00
2022-10-30T11:44:49.691Z,100761.00
2022-10-30T11:47:23.256Z,100768.00
2022-10-30T11:52:48.277Z,100765.00
2022-10-30T11:58:37.905Z,100755.00
2022-10-30T12:01:06.939Z,100748.00
2022-10-30T12:03:41.180Z,100753.00
2022-10-30T12:06:18.257Z,100748.00
2022-10-30T12:11:50.207Z,100746.00
2022-10-30T12:14:19.947Z,100743.00
2022-10-30T12:19:38.324Z,100742.00
2022-10-30T12:24:52.153Z,100738.00
2022-10-30T12:27:22.477Z,100732.00
2022-10-30T12:30:12.188Z,100732.00
2022-10-30T12:32:51.454Z,100732.00
2022-10-30T12:35:23.614Z,100727.00
2022-10-30T12:37:54.748Z,100728.00
2022-10-30T12:46:24.265Z,100725.00
2022-10-30T12:48:59.720Z,100720.00
2022-10-30T12:51:32.854Z,100720.00
2022-10-30T12:54:21.356Z,100717.00
2022-10-30T12:56:52.354Z,100717.00
2022-10-30T12:59:32.347Z,100721.00
2022-10-30T13:02:12.608Z,100719.00
2022-10-30T13:04:44.780Z,100727.00
2022-10-30T13:07:33.858Z,100726.00
2022-10-30T13:10:22.515Z,100715.00
2022-10-30T13:12:54.797Z,100709.00
2022-10-30T13:15:26.691Z,100710.00
2022-10-30T13:23:39.072Z,100699.00
2022-10-30T13:29:16.686Z,100698.00
2022-10-30T13:32:04.818Z,100693.00
2022-10-30T13:34:56.927Z,100687.00
2022-10-30T13:37:37.679Z,100685.00
2022-10-30T13:40:12.961Z,100690.00
2022-10-30T13:43:16.488Z,100689.00
2022-10-30T13:49:11.413Z,100682.00
2022-10-30T13:57:52.922Z,100670.00
2022-10-30T14:00:23.130Z,100674.00
2022-10-30T14:03:16.359Z,100670.00
2022-10-30T14:08:50.904Z,100669.00
2022-10-30T14:14:24.132Z,100665.00
2022-10-30T14:17:17.921Z,100662.00
2022-10-30T14:20:13.606Z,100669.00
2022-10-30T14:22:42.362Z,100670.00
2022-10-30T14:25:15.272Z,100669.00
2022-10-30T14:27:43.818Z,100688.00
2022-10-30T14:33:10.059Z,100685.00
2022-10-30T14:35:39.979Z,100690.00
2022-10-30T14:38:10.648Z,100686.00
2022-10-30T14:40:51.910Z,100685.00
2022-10-30T14:43:29.923Z,100683.00
2022-10-30T14:46:02.163Z,100684.00
2022-10-30T14:48:59.597Z,100680.00
2022-10-30T14:52:01.228Z,100694.00
2022-10-30T14:54:39.916Z,100691.00
2022-10-30T14:57:22.496Z,100688.00
2022-10-30T14:59:54.224Z,100689.00
2022-10-30T15:03:06.635Z,100688.00
2022-10-30T15:05:54.972Z,100681.00
2022-10-30T15:08:25.596Z,100681.00
2022-10-30T15:11:02.108Z,100681.00
2022-10-30T15:13:29.959Z,100675.00
2022-10-30T15:16:13.688Z,100675.00
2022-10-30T15:18:41.702Z,100672.00
2022-10-30T15:21:20.602Z,100676.00
2022-10-30T15:26:37.362Z,100676.00
2022-10-30T15:29:05.762Z,100681.00
2022-10-30T15:34:23.249Z,100678.00
2022-10-30T15:36:51.019Z,100671.00
2022-10-30T15:39:22.444Z,100669.00
2022-10-30T15:44:47.327Z,100659.00
2022-10-30T15:47:21.119Z,100658.00
2022-10-30T15:49:55.282Z,100654.00
2022-10-30T15:52:28.430Z,100649.00
2022-10-30T15:55:02.409Z,100656.00
2022-10-30T15:58:13.085Z,100667.00
2022-10-30T16:03:21.095Z,100655.00
2022-10-30T16:05:49.108Z,100655.00
2022-10-30T16:08:24.311Z,100659.00
2022-10-30T16:10:56.239Z,100655.00
2022-10-30T16:13:30.397Z,100662.00
2022-10-30T16:18:43.853Z,100663.00
2022-10-30T16:21:13.708Z,100666.00
2022-10-30T16:26:39.508Z,100642.00
2022-10-30T16:29:21.403Z,100653.00
2022-10-30T16:34:39.615Z,100644.00
2022-10-30T16:37:34.452Z,100649.00
2022-10-30T16:40:25.547Z,100644.00
2022-10-30T16:42:58.491Z,100654.00
2022-10-30T16:45:32.631Z,100642.00
2022-10-30T16:48:08.665Z,100642.00
2022-10-30T16:50:38.666Z,100640.00
2022-10-30T16:53:07.729Z,100641.00
2022-10-30T16:55:38.830Z,100642.00
2022-10-30T16:58:06.710Z,100638.00
2022-10-30T17:00:36.577Z,100645.00
2022-10-30T17:03:09.410Z,100645.00
2022-10-30T17:05:37.752Z,100650.00
2022-10-30T17:08:36.060Z,100658.00
2022-10-30T17:11:05.624Z,100655.00
2022-10-30T17:13:43.969Z,100652.00
2022-10-30T17:16:25.121Z,100653.00
2022-10-30T17:18:53.679Z,100650.00
2022-10-30T17:24:41.929Z,100665.00
2022-10-30T17:27:27.368Z,100662.00
2022-10-30T17:32:45.496Z,100670.00
2022-10-30T17:35:19.518Z,100671.00
2022-10-30T17:37:47.316Z,100681.00
2022-10-30T17:40:15.596Z,100683.00
2022-10-30T17:42:43.588Z,100682.00
2022-10-30T17:45:14.588Z,100679.00
2022-10-30T17:50:27.823Z,100683.00
2022-10-30T17:52:56.072Z,100683.00
2022-10-30T17:55:30.500Z,100681.00
2022-10-30T17:57:58.845Z,100680.00
2022-10-30T18:00:26.716Z,100682.00
2022-10-30T18:02:54.541Z,100689.00
2022-10-30T18:05:24.011Z,100688.00
2022-10-30T18:07:52.878Z,100690.00
2022-10-30T18:10:20.935Z,100688.00
2022-10-30T18:12:48.995Z,100681.00
2022-10-30T18:15:28.560Z,100683.00
2022-10-30T18:20:41.468Z,100685.00
2022-10-30T18:23:50.372Z,100685.00
2022-10-30T18:26:20.237Z,100691.00
2022-10-30T18:28:48.278Z,100683.00
2022-10-30T18:34:04.239Z,100686.00
2022-10-30T18:36:32.263Z,100692.00
2022-10-30T18:39:00.129Z,100688.00
2022-10-30T18:41:34.296Z,100690.00
2022-10-30T18:44:02.693Z,100684.00
2022-10-30T18:46:35.025Z,100689.00
2022-10-30T18:51:48.405Z,100685.00
2022-10-30T18:54:16.937Z,100687.00
2022-10-30T18:56:44.909Z,100694.00
2022-10-30T18:59:12.827Z,100692.00
2022-10-30T19:01:40.805Z,100691.00
2022-10-30T19:04:12.298Z,100692.00
2022-10-30T19:06:39.945Z,100680.00
2022-10-30T19:09:07.744Z,100698.00
2022-10-30T19:14:21.309Z,100701.00
2022-10-30T19:16:49.066Z,100702.00
2022-10-30T19:19:18.196Z,100702.00
2022-10-30T19:21:46.072Z,100703.00
2022-10-30T19:24:15.496Z,100700.00
2022-10-30T19:29:28.706Z,100704.00
2022-10-30T19:31:56.473Z,100708.00
2022-10-30T19:34:24.430Z,100713.00
2022-10-30T19:36:52.189Z,100712.00
2022-10-30T19:39:19.877Z,100716.00
2022-10-30T19:41:47.831Z,100716.00
2022-10-30T19:44:15.650Z,100717.00
2022-10-30T19:46:43.816Z,100713.00
2022-10-30T19:49:18.421Z,100714.00
2022-10-30T19:59:45.800Z,100725.00
2022-10-30T20:02:13.683Z,100731.00
2022-10-30T20:04:41.670Z,100737.00
2022-10-30T20:07:09.993Z,100734.00
2022-10-30T20:09:37.673Z,100734.00
2022-10-30T20:12:07.022Z,100741.00
2022-10-30T20:14:34.928Z,100733.00
2022-10-30T20:19:48.079Z,100738.00
2022-10-30T20:22:15.945Z,100733.00
2022-10-30T20:24:43.911Z,100736.00
2022-10-30T20:27:11.956Z,100739.00
2022-10-30T20:29:41.231Z,100743.00
2022-10-30T20:32:09.990Z,100742.00
2022-10-30T20:37:24.049Z,100747.00
2022-10-30T20:39:52.144Z,100745.00
2022-10-30T20:42:22.472Z,100752.00
2022-10-30T20:44:50.264Z,100754.00
2022-10-30T20:47:17.994Z,100752.00
2022-10-30T20:49:45.844Z,100746.00
2022-10-30T20:52:13.939Z,100752.00
2022-10-30T20:54:41.904Z,100752.00
2022-10-30T20:57:09.751Z,100759.00
2022-10-30T20:59:37.602Z,100751.00
2022-10-30T21:02:05.910Z,100756.00
2022-10-30T21:04:34.066Z,100763.00
2022-10-30T21:12:32.259Z,100769.00
2022-10-30T21:15:00.113Z,100770.00
2022-10-30T21:20:13.588Z,100767.00
2022-10-30T21:22:41.384Z,100776.00
2022-10-30T21:27:57.221Z,100778.00
2022-10-30T21:30:25.276Z,100782.00
2022-10-30T21:32:53.541Z,100784.00
2022-10-30T21:35:21.439Z,100781.00
2022-10-30T21:37:49.248Z,100789.00
2022-10-30T21:40:17.185Z,100783.00
2022-10-30T21:45:32.490Z,100782.00
2022-10-30T21:48:00.369Z,100775.00
2022-10-30T21:50:28.379Z,100793.00
2022-10-30T21:52:56.531Z,100789.00
2022-10-30T21:55:24.685Z,100790.00
2022-10-30T21:57:52.596Z,100794.00
2022-10-30T22:00:20.650Z,100792.00
2022-10-30T22:02:48.491Z,100798.00
2022-10-30T22:08:02.026Z,100797.00
2022-10-30T22:10:30.118Z,100791.00
2022-10-30T22:12:58.015Z,100790.00
2022-10-30T22:15:25.843Z,100796.00
2022-10-30T22:17:53.597Z,100797.00
2022-10-30T22:20:21.468Z,100798.00
2022-10-30T22:22:50.716Z,100805.00
2022-10-30T22:25:18.658Z,100812.00
2022-10-30T22:27:49.184Z,100810.00
2022-10-30T22:38:32.553Z,100811.00
2022-10-30T22:41:15.491Z,100814.00
2022-10-30T22:43:45.541Z,100817.00
2022-10-30T22:46:15.152Z,100811.00
2022-10-30T22:48:43.142Z,100811.00
2022-10-30T22:51:15.380Z,100814.00
2022-10-30T22:56:33.222Z,100824.00
2022-10-30T22:59:03.357Z,100821.00
2022-10-30T23:01:33.252Z,100817.00
2022-10-30T23:04:02.641Z,100820.00
2022-10-30T23:06:31.595Z,100819.00
2022-10-30T23:09:01.098Z,100827.00
2022-10-30T23:11:29.525Z,100823.00
2022-10-30T23:13:58.089Z,100828.00
2022-10-30T23:16:26.993Z,100822.00
2022-10-30T23:18:56.134Z,100822.00
2022-10-30T23:21:26.550Z,100820.00
2022-10-30T23:23:54.655Z,100824.00
2022-10-30T23:26:33.577Z,100828.00
2022-10-30T23:29:02.189Z,100831.00
2022-10-30T23:31:40.981Z,100830.00
2022-10-30T23:34:11.577Z,100832.00
2022-10-30T23:36:39.584Z,100838.00
2022-10-30T23:39:16.351Z,100836.00
2022-10-30T23:41:44.945Z,100846.00
2022-10-30T23:44:14.828Z,100844.00
2022-10-30T23:46:43.129Z,100838.00
2022-10-30T23:49:10.974Z,100837.00
2022-10-30T23:51:38.975Z,100854.00
2022-10-30T23:54:07.045Z,100844.00
2022-10-30T23:56:35.072Z,100848.00
2022-10-30T23:59:02.881Z,100848.00
